createdAt,value
2019-04-06T00:00:37.523Z,10.60
2019-04-06T00:03:08.127Z,10.60
2019-04-06T00:05:38.599Z,10.60
2019-04-06T00:08:09.139Z,10.60
2019-04-06T00:10:39.592Z,10.50
2019-04-06T00:13:10.189Z,10.60
2019-04-06T00:15:41.322Z,10.50
2019-04-06T00:18:11.929Z,10.60
2019-04-06T00:20:42.589Z,10.50
2019-04-06T00:23:13.329Z,10.40
2019-04-06T00:25:45.012Z,10.40
2019-04-06T00:28:15.899Z,10.40
2019-04-06T00:31:01.992Z,10.40
2019-04-06T00:33:32.835Z,10.40
2019-04-06T00:36:03.320Z,10.30
2019-04-06T00:38:34.075Z,10.40
2019-04-06T00:41:04.748Z,10.20
2019-04-06T00:43:35.376Z,10.20
2019-04-06T00:46:07.196Z,10.20
2019-04-06T00:48:37.796Z,10.30
2019-04-06T00:51:08.378Z,10.30
2019-04-06T00:53:39.296Z,10.20
2019-04-06T00:56:10.050Z,10.20
2019-04-06T00:58:40.602Z,10.10
2019-04-06T01:01:11.284Z,10.10
2019-04-06T01:03:41.913Z,10.10
2019-04-06T01:06:12.306Z,10.00
2019-04-06T01:08:42.999Z,10.00
2019-04-06T01:11:13.615Z,9.90
2019-04-06T01:13:44.251Z,9.80
2019-04-06T01:16:15.108Z,9.80
2019-04-06T01:18:46.053Z,9.80
2019-04-06T01:21:17.834Z,9.80
2019-04-06T01:23:48.323Z,9.80
2019-04-06T01:26:18.752Z,9.70
2019-04-06T01:28:49.245Z,9.70
2019-04-06T01:31:19.824Z,9.70
2019-04-06T01:33:50.430Z,9.70
2019-04-06T01:36:20.965Z,9.70
2019-04-06T01:38:51.789Z,9.70
2019-04-06T01:41:24.977Z,9.70
2019-04-06T01:43:55.723Z,9.70
2019-04-06T01:46:26.584Z,9.70
2019-04-06T01:48:57.144Z,9.80
2019-04-06T01:51:27.542Z,9.80
2019-04-06T01:53:58.750Z,9.70
2019-04-06T01:56:29.308Z,9.80
2019-04-06T01:58:59.976Z,9.70
2019-04-06T02:01:34.752Z,9.70
2019-04-06T02:04:05.451Z,9.70
2019-04-06T02:06:38.043Z,9.70
2019-04-06T02:09:08.460Z,9.70
2019-04-06T02:11:38.983Z,9.70
2019-04-06T02:14:09.902Z,9.70
2019-04-06T02:16:41.983Z,9.80
2019-04-06T02:19:12.554Z,9.80
2019-04-06T02:21:43.011Z,9.80
2019-04-06T02:24:13.530Z,9.80
2019-04-06T02:26:44.199Z,9.80
2019-04-06T02:29:14.690Z,9.90
2019-04-06T02:32:00.535Z,9.90
2019-04-06T02:34:49.886Z,9.90
2019-04-06T02:37:30.357Z,9.90
2019-04-06T02:40:31.725Z,9.90
2019-04-06T02:43:11.345Z,9.90
2019-04-06T02:45:41.804Z,9.90
2019-04-06T02:48:12.320Z,9.80
2019-04-06T02:50:43.053Z,9.80
2019-04-06T02:53:13.585Z,9.80
2019-04-06T02:55:43.994Z,9.80
2019-04-06T02:58:14.344Z,9.80
2019-04-06T03:00:45.205Z,9.80
2019-04-06T03:03:15.503Z,9.80
2019-04-06T03:05:46.225Z,9.80
2019-04-06T03:08:16.659Z,9.70
2019-04-06T03:10:47.184Z,9.70
2019-04-06T03:13:17.706Z,9.50
2019-04-06T03:15:50.894Z,9.50
2019-04-06T03:18:21.422Z,9.50
2019-04-06T03:20:51.818Z,9.40
2019-04-06T03:23:25.677Z,9.30
2019-04-06T03:25:56.324Z,9.30
2019-04-06T03:28:27.315Z,9.30
2019-04-06T03:30:57.869Z,9.20
2019-04-06T03:33:28.358Z,9.20
2019-04-06T03:35:59.010Z,9.20
2019-04-06T03:38:32.339Z,9.00
2019-04-06T03:41:02.961Z,9.00
2019-04-06T03:43:33.370Z,9.10
2019-04-06T03:46:04.048Z,9.10
2019-04-06T03:48:34.375Z,9.00
2019-04-06T03:51:04.952Z,9.10
2019-04-06T03:53:35.268Z,9.10
2019-04-06T03:56:05.655Z,9.10
2019-04-06T03:58:35.956Z,9.20
2019-04-06T04:01:06.443Z,9.10
2019-04-06T04:03:36.987Z,9.10
2019-04-06T04:06:07.693Z,9.10
2019-04-06T04:08:38.090Z,9.10
2019-04-06T04:11:08.436Z,9.20
2019-04-06T04:13:38.907Z,9.20
2019-04-06T04:16:09.147Z,9.20
2019-04-06T04:18:39.482Z,9.10
2019-04-06T04:21:11.034Z,9.10
2019-04-06T04:23:41.353Z,9.00
2019-04-06T04:26:11.586Z,9.00
2019-04-06T04:28:41.852Z,9.00
2019-04-06T04:31:12.127Z,9.00
2019-04-06T04:33:42.685Z,9.10
2019-04-06T04:36:13.021Z,9.00
2019-04-06T04:38:43.229Z,9.00
2019-04-06T04:41:14.957Z,9.00
2019-04-06T04:43:45.336Z,9.00
2019-04-06T04:46:15.595Z,9.10
2019-04-06T04:48:50.784Z,9.00
2019-04-06T04:51:22.052Z,9.00
2019-04-06T04:53:53.064Z,8.90
2019-04-06T04:56:24.059Z,8.90
2019-04-06T04:58:55.725Z,8.90
2019-04-06T05:01:26.243Z,8.90
2019-04-06T05:03:56.739Z,8.80
2019-04-06T05:06:27.419Z,8.70
2019-04-06T05:08:59.740Z,8.60
2019-04-06T05:11:30.188Z,8.60
2019-04-06T05:14:39.775Z,8.50
2019-04-06T05:17:10.498Z,8.50
2019-04-06T05:19:43.846Z,8.40
2019-04-06T05:22:14.634Z,8.40
2019-04-06T05:24:45.552Z,8.40
2019-04-06T05:27:16.419Z,8.50
2019-04-06T05:29:47.310Z,8.40
2019-04-06T05:32:18.440Z,8.40
2019-04-06T05:34:49.470Z,8.40
2019-04-06T05:37:20.581Z,8.40
2019-04-06T05:39:51.370Z,8.50
2019-04-06T05:42:21.965Z,8.50
2019-04-06T05:44:52.910Z,8.50
2019-04-06T05:47:23.955Z,8.50
2019-04-06T05:49:54.437Z,8.50
2019-04-06T05:52:25.155Z,8.40
2019-04-06T05:54:55.870Z,8.40
2019-04-06T05:57:26.872Z,8.50
2019-04-06T05:59:57.803Z,8.50
2019-04-06T06:02:28.794Z,8.60
2019-04-06T06:05:00.931Z,8.60
2019-04-06T06:07:32.035Z,8.60
2019-04-06T06:10:02.839Z,8.70
2019-04-06T06:12:33.917Z,8.60
2019-04-06T06:15:05.191Z,8.70
2019-04-06T06:17:36.820Z,8.80
2019-04-06T06:20:08.043Z,8.80
2019-04-06T06:22:40.291Z,8.90
2019-04-06T06:25:11.870Z,8.90
2019-04-06T06:27:42.976Z,8.90
2019-04-06T06:30:14.076Z,8.90
2019-04-06T06:32:44.593Z,8.80
2019-04-06T06:35:15.825Z,8.90
2019-04-06T06:37:47.244Z,8.90
2019-04-06T06:40:18.406Z,8.80
2019-04-06T06:42:49.489Z,8.90
2019-04-06T06:45:20.361Z,8.90
2019-04-06T06:47:51.386Z,9.00
2019-04-06T06:50:22.712Z,9.00
2019-04-06T06:52:53.751Z,8.90
2019-04-06T06:55:26.622Z,8.90
2019-04-06T06:57:57.662Z,8.90
2019-04-06T07:00:28.495Z,9.00
2019-04-06T07:02:59.201Z,8.70
2019-04-06T07:05:30.101Z,8.90
2019-04-06T07:08:00.805Z,8.90
2019-04-06T07:10:32.045Z,9.00
2019-04-06T07:13:02.934Z,8.90
2019-04-06T07:15:34.033Z,9.10
2019-04-06T07:18:05.278Z,9.20
2019-04-06T07:20:36.449Z,9.00
2019-04-06T07:23:08.921Z,9.10
2019-04-06T07:25:40.084Z,8.90
2019-04-06T07:28:11.297Z,9.00
2019-04-06T07:30:42.318Z,8.90
2019-04-06T07:33:13.223Z,8.90
2019-04-06T07:35:43.826Z,9.00
2019-04-06T07:38:14.482Z,8.90
2019-04-06T07:40:44.919Z,9.10
2019-04-06T07:43:16.048Z,9.30
2019-04-06T07:45:47.031Z,9.40
2019-04-06T07:48:18.396Z,9.40
2019-04-06T07:50:49.584Z,9.50
2019-04-06T07:53:20.863Z,9.70
2019-04-06T07:55:52.449Z,9.70
2019-04-06T07:58:23.990Z,9.90
2019-04-06T08:00:58.218Z,9.90
2019-04-06T08:03:29.228Z,9.80
2019-04-06T08:06:00.348Z,9.80
2019-04-06T08:08:31.240Z,9.80
2019-04-06T08:11:01.813Z,9.70
2019-04-06T08:13:32.824Z,9.70
2019-04-06T08:16:04.147Z,9.80
2019-04-06T08:18:34.679Z,9.90
2019-04-06T08:21:05.388Z,9.80
2019-04-06T08:23:36.297Z,9.90
2019-04-06T08:26:07.375Z,10.00
2019-04-06T08:28:38.574Z,10.00
2019-04-06T08:31:09.622Z,10.20
2019-04-06T08:33:40.493Z,10.40
2019-04-06T08:36:11.662Z,10.50
2019-04-06T08:38:42.329Z,10.70
2019-04-06T08:41:13.040Z,10.70
2019-04-06T08:43:43.870Z,10.90
2019-04-06T08:46:14.683Z,10.80
2019-04-06T08:48:45.410Z,10.90
2019-04-06T08:51:16.155Z,10.90
2019-04-06T08:53:46.673Z,11.00
2019-04-06T08:56:17.214Z,11.10
2019-04-06T08:58:47.875Z,11.10
2019-04-06T09:01:18.512Z,11.20
2019-04-06T09:03:49.229Z,11.30
2019-04-06T09:06:23.606Z,11.40
2019-04-06T09:08:54.370Z,11.60
2019-04-06T09:11:25.149Z,11.60
2019-04-06T09:13:56.068Z,11.80
2019-04-06T09:16:26.706Z,11.80
2019-04-06T09:18:57.760Z,11.80
2019-04-06T09:21:28.452Z,12.00
2019-04-06T09:23:59.390Z,12.00
2019-04-06T09:26:29.969Z,12.20
2019-04-06T09:29:01.031Z,12.20
2019-04-06T09:31:32.463Z,12.20
2019-04-06T09:34:03.335Z,12.40
2019-04-06T09:36:33.948Z,12.70
2019-04-06T09:39:06.400Z,12.80
2019-04-06T09:41:37.326Z,12.90
2019-04-06T09:44:11.683Z,13.00
2019-04-06T09:47:00.918Z,13.00
2019-04-06T09:50:05.770Z,13.10
2019-04-06T09:52:46.975Z,13.30
2019-04-06T09:55:33.005Z,13.40
2019-04-06T09:58:26.042Z,13.50
2019-04-06T10:01:16.041Z,13.60
2019-04-06T10:03:55.358Z,13.90
2019-04-06T10:06:38.247Z,14.10
2019-04-06T10:09:46.404Z,14.10
2019-04-06T10:12:34.540Z,14.10
2019-04-06T10:15:23.756Z,14.20
2019-04-06T10:18:16.153Z,14.10
2019-04-06T10:21:04.150Z,14.20
2019-04-06T10:23:56.806Z,14.40
2019-04-06T10:26:44.968Z,14.50
2019-04-06T10:29:33.324Z,14.50
2019-04-06T10:32:28.932Z,14.70
2019-04-06T10:35:15.540Z,14.70
2019-04-06T10:38:14.016Z,14.80
2019-04-06T10:40:55.533Z,14.70
2019-04-06T10:43:37.160Z,14.90
2019-04-06T10:46:26.556Z,15.20
2019-04-06T10:49:09.008Z,15.50
2019-04-06T10:51:53.793Z,15.70
2019-04-06T10:54:33.347Z,15.90
2019-04-06T10:57:23.410Z,16.10
2019-04-06T11:00:03.946Z,16.20
2019-04-06T11:02:53.609Z,16.40
2019-04-06T11:05:59.175Z,16.50
2019-04-06T11:08:47.331Z,16.60
2019-04-06T11:11:25.475Z,16.90
2019-04-06T11:14:18.958Z,17.00
2019-04-06T11:17:12.823Z,16.80
2019-04-06T11:20:17.413Z,17.00
2019-04-06T11:23:11.601Z,17.20
2019-04-06T11:26:04.286Z,17.40
2019-04-06T11:28:44.542Z,17.60
2019-04-06T11:31:38.412Z,17.80
2019-04-06T11:34:29.458Z,18.20
2019-04-06T11:37:17.727Z,18.40
2019-04-06T11:40:16.416Z,18.60
2019-04-06T11:43:04.288Z,18.50
2019-04-06T11:46:02.633Z,18.40
2019-04-06T11:48:51.856Z,18.50
2019-04-06T11:51:45.932Z,18.50
2019-04-06T11:54:43.834Z,18.60
2019-04-06T11:57:38.907Z,18.60
2019-04-06T12:00:28.509Z,18.70
2019-04-06T12:03:07.678Z,18.90
2019-04-06T12:06:01.384Z,19.00
2019-04-06T12:08:51.804Z,18.90
2019-04-06T12:11:41.308Z,18.80
2019-04-06T12:14:17.451Z,18.90
2019-04-06T12:16:53.658Z,18.70
2019-04-06T12:19:33.520Z,18.80
2019-04-06T12:22:23.033Z,18.80
2019-04-06T12:25:18.435Z,19.00
2019-04-06T12:28:07.642Z,19.20
2019-04-06T12:30:55.963Z,19.10
2019-04-06T12:33:51.431Z,18.90
2019-04-06T12:36:52.733Z,19.10
2019-04-06T12:39:27.085Z,19.30
2019-04-06T12:42:24.062Z,19.30
2019-04-06T12:45:13.800Z,19.50
2019-04-06T12:48:21.124Z,19.50
2019-04-06T12:51:13.479Z,19.50
2019-04-06T12:53:55.374Z,19.40
2019-04-06T12:56:43.360Z,19.30
2019-04-06T12:59:41.803Z,19.40
2019-04-06T13:02:24.272Z,19.50
2019-04-06T13:05:14.184Z,19.70
2019-04-06T13:08:03.603Z,19.80
2019-04-06T13:10:56.811Z,19.90
2019-04-06T13:13:46.468Z,19.80
2019-04-06T13:16:38.994Z,19.60
2019-04-06T13:19:26.920Z,19.60
2019-04-06T13:22:14.779Z,19.60
2019-04-06T13:25:00.444Z,19.80
2019-04-06T13:27:52.770Z,19.90
2019-04-06T13:30:34.210Z,20.00
2019-04-06T13:33:14.903Z,20.00
2019-04-06T13:36:03.455Z,20.00
2019-04-06T13:38:53.322Z,20.00
2019-04-06T13:41:42.848Z,20.10
2019-04-06T13:44:32.095Z,20.30
2019-04-06T13:47:24.566Z,20.30
2019-04-06T13:50:08.489Z,20.20
2019-04-06T13:53:03.567Z,20.30
2019-04-06T13:55:59.813Z,20.30
2019-04-06T13:58:48.089Z,20.40
2019-04-06T14:01:39.619Z,20.50
2019-04-06T14:04:28.050Z,20.50
2019-04-06T14:07:16.523Z,20.50
2019-04-06T14:10:14.712Z,20.50
2019-04-06T14:13:19.164Z,20.40
2019-04-06T14:16:26.653Z,20.60
2019-04-06T14:19:07.152Z,20.80
2019-04-06T14:22:06.225Z,20.90
2019-04-06T14:24:59.168Z,20.80
2019-04-06T14:27:43.410Z,20.80
2019-04-06T14:30:31.127Z,20.90
2019-04-06T14:33:15.680Z,21.00
2019-04-06T14:36:14.230Z,21.00
2019-04-06T14:39:12.194Z,21.00
2019-04-06T14:42:09.337Z,21.00
2019-04-06T14:44:49.563Z,21.00
2019-04-06T14:47:41.742Z,21.20
2019-04-06T14:50:24.559Z,21.10
2019-04-06T14:53:08.435Z,21.00
2019-04-06T14:55:58.104Z,21.10
2019-04-06T14:58:59.618Z,21.10
2019-04-06T15:01:57.739Z,21.20
2019-04-06T15:04:38.974Z,21.10
2019-04-06T15:07:34.742Z,21.20
2019-04-06T15:10:43.039Z,21.20
2019-04-06T15:13:32.593Z,21.20
2019-04-06T15:16:18.045Z,21.20
2019-04-06T15:19:06.206Z,21.30
2019-04-06T15:22:01.496Z,21.30
2019-04-06T15:24:55.656Z,21.20
2019-04-06T15:27:38.874Z,21.10
2019-04-06T15:30:22.448Z,21.10
2019-04-06T15:33:01.462Z,21.20
2019-04-06T15:35:49.995Z,21.20
2019-04-06T15:38:48.580Z,21.10
2019-04-06T15:41:56.338Z,21.00
2019-04-06T15:44:36.868Z,21.10
2019-04-06T15:47:32.277Z,21.20
2019-04-06T15:50:17.945Z,21.20
2019-04-06T15:52:53.932Z,21.30
2019-04-06T15:55:40.781Z,21.30
2019-04-06T15:58:30.557Z,21.30
2019-04-06T16:01:19.386Z,21.30
2019-04-06T16:03:58.872Z,21.30
2019-04-06T16:06:39.953Z,21.30
2019-04-06T16:09:39.012Z,21.30
2019-04-06T16:12:33.873Z,21.30
2019-04-06T16:15:19.405Z,21.30
2019-04-06T16:18:00.307Z,21.20
2019-04-06T16:20:46.167Z,21.20
2019-04-06T16:23:27.930Z,21.20
2019-04-06T16:26:26.669Z,21.20
2019-04-06T16:29:15.027Z,21.20
2019-04-06T16:32:13.989Z,21.20
2019-04-06T16:35:02.351Z,21.10
2019-04-06T16:37:49.645Z,21.00
2019-04-06T16:40:37.753Z,21.00
2019-04-06T16:43:32.107Z,21.00
2019-04-06T16:46:19.600Z,21.00
2019-04-06T16:48:57.754Z,20.90
2019-04-06T16:51:51.109Z,21.00
2019-04-06T16:54:52.969Z,20.90
2019-04-06T16:57:42.623Z,20.90
2019-04-06T17:00:34.032Z,20.80
2019-04-06T17:03:13.687Z,20.90
2019-04-06T17:06:03.417Z,20.90
2019-04-06T17:08:46.949Z,20.90
2019-04-06T17:11:35.993Z,20.80
2019-04-06T17:14:28.659Z,20.80
2019-04-06T17:17:18.596Z,20.80
2019-04-06T17:20:14.327Z,20.80
2019-04-06T17:23:09.564Z,20.70
2019-04-06T17:25:49.763Z,20.70
2019-04-06T17:28:45.775Z,20.60
2019-04-06T17:31:30.030Z,20.60
2019-04-06T17:34:09.864Z,20.50
2019-04-06T17:37:02.335Z,20.50
2019-04-06T17:39:48.223Z,20.40
2019-04-06T17:42:40.099Z,20.30
2019-04-06T17:45:30.282Z,20.20
2019-04-06T17:48:19.127Z,20.10
2019-04-06T17:51:14.434Z,20.10
2019-04-06T17:53:58.009Z,20.10
2019-04-06T17:56:46.598Z,20.10
2019-04-06T17:59:36.850Z,20.00
2019-04-06T18:02:30.161Z,20.00
2019-04-06T18:05:18.278Z,20.00
2019-04-06T18:08:08.169Z,19.90
2019-04-06T18:11:00.286Z,19.90
2019-04-06T18:13:48.476Z,19.90
2019-04-06T18:16:21.259Z,19.90
2019-04-06T18:18:52.671Z,19.80
2019-04-06T18:21:23.589Z,19.70
2019-04-06T18:23:54.284Z,19.60
2019-04-06T18:26:25.127Z,19.60
2019-04-06T18:28:56.238Z,19.60
2019-04-06T18:31:52.715Z,19.40
2019-04-06T18:34:23.062Z,19.40
2019-04-06T18:37:10.157Z,19.30
2019-04-06T18:39:40.453Z,19.20
2019-04-06T18:42:10.807Z,19.10
2019-04-06T18:44:44.358Z,19.10
2019-04-06T18:47:15.403Z,19.00
2019-04-06T18:49:46.060Z,18.90
2019-04-06T18:52:16.781Z,18.80
2019-04-06T18:54:47.440Z,18.80
2019-04-06T18:57:17.787Z,18.70
2019-04-06T18:59:48.162Z,18.60
2019-04-06T19:02:18.556Z,18.50
2019-04-06T19:04:48.899Z,18.40
2019-04-06T19:07:19.302Z,18.20
2019-04-06T19:09:49.765Z,18.20
2019-04-06T19:12:20.136Z,18.20
2019-04-06T19:14:50.834Z,18.10
2019-04-06T19:17:21.357Z,18.00
2019-04-06T19:19:51.712Z,18.00
2019-04-06T19:22:22.114Z,17.90
2019-04-06T19:24:52.470Z,17.80
2019-04-06T19:27:22.868Z,17.70
2019-04-06T19:29:53.226Z,17.70
2019-04-06T19:32:23.572Z,17.60
2019-04-06T19:34:54.045Z,17.60
2019-04-06T19:37:24.905Z,17.60
2019-04-06T19:39:56.014Z,17.60
2019-04-06T19:42:26.359Z,17.50
2019-04-06T19:44:59.543Z,17.40
2019-04-06T19:47:30.140Z,17.40
2019-04-06T19:50:00.590Z,17.40
2019-04-06T19:52:31.189Z,17.30
2019-04-06T19:55:01.702Z,17.20
2019-04-06T19:57:32.008Z,17.10
2019-04-06T20:00:02.547Z,17.10
2019-04-06T20:02:33.365Z,17.10
2019-04-06T20:05:04.082Z,17.00
2019-04-06T20:07:34.433Z,16.90
2019-04-06T20:10:05.431Z,16.90
2019-04-06T20:12:36.163Z,16.90
2019-04-06T20:15:08.720Z,16.80
2019-04-06T20:17:39.183Z,16.70
2019-04-06T20:20:09.621Z,16.70
2019-04-06T20:22:40.058Z,16.60
2019-04-06T20:25:10.792Z,16.60
2019-04-06T20:27:41.150Z,16.60
2019-04-06T20:30:12.249Z,16.60
2019-04-06T20:32:45.848Z,16.60
2019-04-06T20:35:16.689Z,16.70
2019-04-06T20:37:47.093Z,16.70
2019-04-06T20:40:17.648Z,16.70
2019-04-06T20:42:51.467Z,16.70
2019-04-06T20:45:22.023Z,16.70
2019-04-06T20:47:55.117Z,16.60
2019-04-06T20:50:25.603Z,16.60
2019-04-06T20:52:55.902Z,16.60
2019-04-06T20:55:26.527Z,16.60
2019-04-06T20:57:57.159Z,16.50
2019-04-06T21:00:27.773Z,16.50
2019-04-06T21:02:58.154Z,16.50
2019-04-06T21:05:28.895Z,16.40
2019-04-06T21:07:59.287Z,16.40
2019-04-06T21:10:29.848Z,16.40
2019-04-06T21:13:00.352Z,16.30
2019-04-06T21:15:30.759Z,16.30
2019-04-06T21:18:01.330Z,16.20
2019-04-06T21:20:31.721Z,16.20
2019-04-06T21:23:02.816Z,16.20
2019-04-06T21:25:33.622Z,16.10
2019-04-06T21:28:04.242Z,16.10
2019-04-06T21:30:34.644Z,16.00
2019-04-06T21:33:04.962Z,16.00
2019-04-06T21:35:36.849Z,15.90
2019-04-06T21:38:07.751Z,15.90
2019-04-06T21:40:38.597Z,15.90
2019-04-06T21:43:09.122Z,15.80
2019-04-06T21:45:39.487Z,15.80
2019-04-06T21:48:10.420Z,15.60
2019-04-06T21:50:40.973Z,15.60
2019-04-06T21:53:12.132Z,15.60
2019-04-06T21:55:42.615Z,15.60
2019-04-06T21:58:13.059Z,15.60
2019-04-06T22:00:55.070Z,15.50
2019-04-06T22:03:28.701Z,15.50
2019-04-06T22:06:01.399Z,15.40
2019-04-06T22:08:31.791Z,15.40
2019-04-06T22:11:02.693Z,15.30
2019-04-06T22:13:33.044Z,15.30
2019-04-06T22:16:03.345Z,15.30
2019-04-06T22:18:33.964Z,15.30
2019-04-06T22:21:04.727Z,15.20
2019-04-06T22:23:42.023Z,15.20
2019-04-06T22:26:08.078Z,15.20
2019-04-06T22:28:38.507Z,15.20
2019-04-06T22:31:08.802Z,15.20
2019-04-06T22:33:39.126Z,15.00
2019-04-06T22:36:09.992Z,15.00
2019-04-06T22:38:41.553Z,14.90
2019-04-06T22:41:12.135Z,14.90
2019-04-06T22:43:42.395Z,14.90
2019-04-06T22:46:12.641Z,14.90
2019-04-06T22:48:42.992Z,14.80
2019-04-06T22:51:13.839Z,14.80
2019-04-06T22:53:47.568Z,14.80
2019-04-06T22:56:18.077Z,14.70
2019-04-06T22:58:48.413Z,14.60
2019-04-06T23:01:18.922Z,14.60
2019-04-06T23:04:20.378Z,14.50
2019-04-06T23:06:55.368Z,14.50
2019-04-06T23:09:25.805Z,14.40
2019-04-06T23:11:56.115Z,14.40
2019-04-06T23:14:26.416Z,14.50
2019-04-06T23:16:56.715Z,14.50
2019-04-06T23:19:27.119Z,14.50
2019-04-06T23:21:57.570Z,14.50
2019-04-06T23:24:29.466Z,14.40
2019-04-06T23:26:59.703Z,14.40
2019-04-06T23:29:29.968Z,14.30
2019-04-06T23:32:00.206Z,14.20
2019-04-06T23:34:30.440Z,14.30
2019-04-06T23:37:00.816Z,14.20
2019-04-06T23:39:31.049Z,14.10
2019-04-06T23:42:01.513Z,14.00
2019-04-06T23:44:31.849Z,14.00
2019-04-06T23:47:02.164Z,13.90
2019-04-06T23:49:32.801Z,13.90
2019-04-06T23:52:03.700Z,13.80
2019-04-06T23:54:34.788Z,13.70
2019-04-06T23:57:05.163Z,13.70
2019-04-06T23:59:36.162Z,13.70
